Latest Weather Observations for Strathalbyn

IDS60801

Issued at 11:32 pm CST Tuesday 22 September 2020 (issued every 10 minutes, with the page automatically refreshed every 10 minutes)

About weather observations | Map of weather stations | Latest weather observations for SA | Other Formats
Station Details ID: 024580 Name: STRATHALBYN RACECOURSE Lat: -35.28 Lon: 138.89 Height: 58.0 m
Data from the previous 72 hours. | See also: Recent months at Strathalbyn
Date/Time
CST
Temp
°C
App
Temp
°C
Dew
Point
°C
Rel
Hum
%
Delta-T
°C
Wind Press
QNH
hPa
Press
MSL
hPa
Rain since
9am
mm
Dir  Spd
km/h
Gust
km/h
Spd
kts
Gust
kts
22/11:30pm 10.0 5.8 7.3 83 1.3 W 19 26 10 14 1015.9 1015.9 7.4
22/11:00pm 10.8 7.5 8.0 83 1.4 W 15 26 8 14 1016.0 1016.0 6.4
22/10:30pm 10.4 6.6 7.5 82 1.4 W 17 26 9 14 1016.0 1016.0 6.4
22/10:00pm 10.8 7.1 8.0 83 1.4 W 17 22 9 12 1016.2 1016.2 5.4
22/09:30pm 10.8 6.6 7.5 80 1.6 WNW 19 26 10 14 1015.9 1015.9 4.8
22/09:00pm 11.3 7.2 7.8 79 1.7 W 19 28 10 15 1016.0 1016.0 4.4
22/08:30pm 11.1 7.0 7.8 80 1.6 W 19 26 10 14 1015.6 1015.6 4.2
22/08:00pm 11.2 6.2 8.2 82 1.5 W 24 37 13 20 1015.4 1015.4 3.8
22/07:30pm 11.5 7.3 7.6 77 1.9 W 19 26 10 14 1015.2 1015.2 2.8
22/07:00pm 11.4 7.2 8.1 80 1.6 W 20 28 11 15 1014.6 1014.6 2.8
22/06:30pm 11.5 6.1 8.0 79 1.7 W 26 46 14 25 1014.4 1014.4 2.8
22/06:00pm 12.4 7.9 7.1 70 2.6 W 20 32 11 17 1013.9 1013.9 2.0
22/05:30pm 13.0 6.5 6.6 65 3.1 W 30 46 16 25 1013.6 1013.6 2.0
22/05:24pm 12.9 6.8 6.7 66 3.0 W 28 46 15 25 1013.5 1013.5 2.0
22/05:00pm 13.7 8.9 7.5 66 3.0 W 22 33 12 18 1013.3 1013.3 2.0
22/04:30pm 14.6 8.7 7.4 62 3.6 W 28 43 15 23 1012.8 1012.8 2.0
22/04:00pm 14.7 9.2 7.5 62 3.6 W 26 39 14 21 1012.5 1012.5 2.0
22/03:30pm 14.8 8.2 7.6 62 3.6 W 32 44 17 24 1012.5 1012.5 2.0
22/03:00pm 15.2 9.5 8.2 63 3.5 W 28 43 15 23 1012.3 1012.3 2.0
22/02:30pm 14.3 9.0 8.3 67 3.0 W 26 37 14 20 1012.1 1012.1 2.0
22/02:00pm 14.2 9.9 9.4 73 2.5 W 22 44 12 24 1011.8 1011.8 2.0
22/01:30pm 14.0 8.6 9.4 74 2.4 W 28 41 15 22 1011.7 1011.7 2.0
22/01:11pm 12.3 6.8 9.0 80 1.7 W 28 46 15 25 1011.9 1011.9 2.0
22/01:00pm 14.0 7.7 8.8 71 2.6 W 32 46 17 25 1011.5 1011.5 0.4
22/12:31pm 15.3 9.1 9.2 67 3.1 WNW 32 50 17 27 1011.5 1011.5 0.4
22/12:30pm 15.1 8.6 8.8 66 3.2 WNW 33 50 18 27 1011.5 1011.5 0.4
22/12:07pm 14.5 8.0 9.1 70 2.8 W 33 50 18 27 1011.4 1011.4 0.4
22/12:00pm 14.1 7.5 8.7 70 2.7 W 33 46 18 25 1011.5 1011.5 0.2
22/11:31am 14.0 7.0 8.4 69 2.8 W 35 54 19 29 1011.4 1011.4 0.2
22/11:30am 14.0 6.6 8.2 68 2.9 W 37 54 20 29 1011.4 1011.4 0.2
22/11:12am 12.2 5.6 7.9 75 2.1 W 32 50 17 27 1011.3 1011.3 0.2
22/11:00am 12.7 5.6 8.0 73 2.3 W 35 48 19 26 1011.4 1011.4 0.2
22/10:30am 15.0 7.0 7.5 61 3.7 WNW 39 61 21 33 1010.7 1010.7 0.0
22/10:01am 14.8 7.8 6.9 59 3.9 WNW 33 59 18 32 1010.2 1010.2 0.0
22/10:00am 14.7 7.9 7.0 60 3.8 WNW 32 44 17 24 1010.3 1010.3 0.0
22/09:30am 14.7 6.7 7.5 62 3.6 WNW 39 65 21 35 1009.9 1009.9 0.0
22/09:00am 13.9 5.4 7.0 63 3.4 W 41 59 22 32 1009.4 1009.4 2.8
22/08:30am 13.6 5.5 6.9 64 3.3 W 39 63 21 34 1008.8 1008.8 2.8
22/08:00am 13.2 5.5 7.2 67 2.9 W 37 65 20 35 1008.3 1008.3 2.8
22/07:30am 12.3 3.4 7.0 70 2.6 W 43 69 23 37 1007.9 1007.9 2.8
22/07:00am 12.2 3.7 6.9 70 2.5 W 41 61 22 33 1007.4 1007.4 2.8
22/06:30am 11.9 3.7 6.4 69 2.6 WNW 39 57 21 31 1007.0 1007.0 2.8
22/06:00am 11.8 4.5 7.1 73 2.3 WNW 35 57 19 31 1006.7 1006.7 2.8
22/05:30am 11.5 4.2 7.2 75 2.1 WNW 35 56 19 30 1006.4 1006.4 2.8
22/05:00am 11.5 3.7 6.8 73 2.2 WNW 37 57 20 31 1006.2 1006.2 2.8
22/04:30am 11.5 4.7 6.8 73 2.2 WNW 32 50 17 27 1005.9 1005.9 2.8
22/04:00am 11.7 4.4 7.4 75 2.1 WNW 35 59 19 32 1006.2 1006.2 2.8
22/03:30am 11.7 5.6 6.8 72 2.3 WNW 28 52 15 28 1006.3 1006.3 2.8
22/03:27am 11.7 5.6 6.8 72 2.3 WNW 28 52 15 28 1006.2 1006.2 2.8
22/03:00am 11.8 6.6 7.1 73 2.3 WNW 24 41 13 22 1006.2 1006.2 2.8
22/02:30am 11.8 6.9 6.9 72 2.4 WNW 22 41 12 22 1006.4 1006.4 2.8
22/02:00am 11.9 7.5 7.4 74 2.2 WNW 20 32 11 17 1006.8 1006.8 2.8
22/01:32am 11.7 5.8 7.4 75 2.1 W 28 46 15 25 1007.0 1007.0 2.8
22/01:30am 11.7 6.2 7.4 75 2.1 WNW 26 46 14 25 1007.0 1007.0 2.8
22/01:00am 11.8 5.6 7.7 76 2.0 WNW 30 57 16 31 1007.2 1007.2 2.6
22/12:30am 12.5 5.8 7.2 70 2.6 WNW 32 52 17 28 1007.1 1007.1 2.6
22/12:03am 12.0 6.1 7.5 74 2.2 WNW 28 46 15 25 1007.3 1007.3 2.6
22/12:00am 12.3 6.0 7.4 72 2.4 WNW 30 46 16 25 1007.2 1007.2 2.6
 
Date/Time
CST
Temp
°C
App
Temp
°C
Dew
Point
°C
Rel
Hum
%
Delta-T
°C
Wind Press
QNH
hPa
Press
MSL
hPa
Rain since
9am
mm
Dir  Spd
km/h
Gust
km/h
Spd
kts
Gust
kts
21/11:45pm 12.4 6.5 7.3 71 2.5 WNW 28 50 15 27 1007.2 1007.2 2.6
21/11:30pm 12.1 7.0 7.6 74 2.2 WNW 24 35 13 19 1007.3 1007.3 2.6
21/11:00pm 12.0 6.9 7.7 75 2.1 WNW 24 44 13 24 1007.4 1007.4 2.6
21/10:30pm 12.1 5.9 8.0 76 2.0 WNW 30 41 16 22 1007.2 1007.2 2.6
21/10:00pm 12.5 7.6 8.6 77 1.9 WNW 24 35 13 19 1007.2 1007.2 1.2
21/09:30pm 12.2 6.6 8.7 79 1.8 WNW 28 44 15 24 1007.2 1007.2 1.2
21/09:00pm 12.8 8.7 8.7 76 2.1 WNW 20 33 11 18 1007.0 1007.0 0.6
21/08:30pm 13.3 9.1 8.2 71 2.5 NW 20 33 11 18 1006.6 1006.6 0.0
21/08:00pm 13.0 8.3 7.7 70 2.6 WNW 22 32 12 17 1006.2 1006.2 0.0
21/07:30pm 12.9 8.5 7.4 69 2.7 WNW 20 35 11 19 1005.8 1005.8 0.0
21/07:00pm 12.8 8.8 6.6 66 3.0 W 17 26 9 14 1005.2 1005.2 0.0
21/06:30pm 13.0 7.8 5.7 61 3.5 WNW 22 41 12 22 1005.0 1005.0 0.0
21/06:00pm 13.7 7.5 7.7 67 3.0 W 30 39 16 21 1004.8 1004.8 0.0
21/05:33pm 14.7 8.9 8.0 64 3.4 W 28 46 15 25 1004.4 1004.4 0.0
21/05:30pm 14.8 9.3 7.6 62 3.6 W 26 46 14 25 1004.2 1004.1 0.0
21/05:18pm 15.7 9.0 7.2 57 4.2 WNW 32 50 17 27 1003.9 1003.8 0.0
21/05:00pm 16.4 9.3 6.5 52 4.9 WNW 33 46 18 25 1003.6 1003.5 0.0
21/04:30pm 16.9 9.9 6.7 51 5.1 WNW 33 57 18 31 1003.1 1003.0 0.0
21/04:00pm 16.9 7.4 6.7 51 5.0 WNW 46 65 25 35 1002.6 1002.5 0.0
21/03:30pm 17.5 6.5 7.0 50 5.3 WNW 54 76 29 41 1001.9 1001.9 0.0
21/03:00pm 17.6 7.2 6.2 47 5.6 NW 50 72 27 39 1002.1 1002.0 0.0
21/02:30pm 17.8 7.7 7.5 51 5.2 NW 50 76 27 41 1002.4 1002.3 0.0
21/02:00pm 17.8 7.3 7.5 51 5.2 NW 52 76 28 41 1002.5 1002.4 0.0
21/01:30pm 17.4 6.7 6.6 49 5.4 NW 52 74 28 40 1002.6 1002.5 0.0
21/01:00pm 18.0 7.7 6.5 47 5.7 NW 50 70 27 38 1002.8 1002.7 0.0
21/12:30pm 17.4 5.5 5.4 45 5.8 NW 57 82 31 44 1003.0 1002.9 0.0
21/12:00pm 17.7 5.9 4.6 42 6.3 NW 56 78 30 42 1003.0 1002.9 0.0
21/11:30am 17.9 6.3 4.1 40 6.6 NW 54 82 29 44 1002.7 1002.6 0.0
21/11:00am 17.5 5.7 3.0 38 6.7 NW 54 85 29 46 1002.7 1002.6 0.0
21/10:30am 17.5 6.6 1.5 34 7.2 NW 48 72 26 39 1003.1 1003.0 0.0
21/10:01am 16.7 7.7 0.4 33 7.1 NNW 37 57 20 31 1003.6 1003.5 0.0
21/10:00am 16.9 8.3 0.5 33 7.1 NNW 35 52 19 28 1003.6 1003.5 0.0
21/09:30am 16.0 8.1 2.1 39 6.2 NNW 33 48 18 26 1003.9 1003.8 0.0
21/09:23am 15.9 8.1 2.0 39 6.2 NW 32 50 17 27 1004.0 1003.9 0.0
21/09:00am 15.3 8.1 3.1 44 5.6 NW 30 41 16 22 1004.0 1003.9 3.6
21/08:35am 14.4 6.9 3.2 47 5.1 NW 32 50 17 27 1003.8 1003.7 3.6
21/08:30am 14.3 6.3 4.0 50 4.7 NW 35 50 19 27 1003.8 1003.7 3.6
21/08:12am 13.7 5.0 4.3 53 4.3 NW 39 57 21 31 1003.6 1003.5 3.6
21/08:00am 13.5 4.6 4.9 56 4.0 NW 41 54 22 29 1003.6 1003.5 3.6
21/07:30am 12.7 5.6 5.6 62 3.3 NW 32 52 17 28 1003.5 1003.4 3.6
21/07:29am 12.6 5.5 5.5 62 3.3 NW 32 52 17 28 1003.5 1003.4 3.6
21/07:00am 12.0 4.8 5.0 62 3.2 NW 32 46 17 25 1003.8 1003.7 3.6
21/06:30am 11.5 4.7 4.9 64 3.0 NW 30 41 16 22 1004.0 1003.9 3.6
21/06:00am 11.4 4.7 5.5 67 2.7 NW 30 46 16 25 1004.2 1004.1 3.6
21/05:56am 11.3 4.9 5.4 67 2.7 NW 28 46 15 25 1004.2 1004.1 3.6
21/05:30am 11.4 4.7 5.7 68 2.7 NW 30 41 16 22 1004.2 1004.1 3.6
21/05:00am 11.5 4.5 5.8 68 2.7 NW 32 39 17 21 1004.1 1004.0 3.6
21/04:30am 11.6 4.3 5.5 66 2.8 NW 33 44 18 24 1003.9 1003.8 3.6
21/04:20am 11.5 4.1 5.2 65 2.9 WNW 33 52 18 28 1003.9 1003.8 3.6
21/04:00am 11.5 4.4 5.4 66 2.8 WNW 32 46 17 25 1003.7 1003.6 3.6
21/03:30am 11.8 4.4 5.2 64 3.1 WNW 33 48 18 26 1003.9 1003.8 3.6
21/03:00am 12.0 4.3 5.2 63 3.2 WNW 35 52 19 28 1003.7 1003.6 3.6
21/02:30am 12.1 4.4 5.5 64 3.1 WNW 35 48 19 26 1003.9 1003.8 3.6
21/02:00am 12.5 3.6 5.0 60 3.5 WNW 41 59 22 32 1003.8 1003.7 3.6
21/01:40am 12.8 4.4 5.5 61 3.4 WNW 39 59 21 32 1003.8 1003.7 3.6
21/01:30am 12.9 4.8 6.9 67 2.9 WNW 39 54 21 29 1003.9 1003.8 3.6
21/01:01am 13.0 5.5 6.1 63 3.3 WNW 35 54 19 29 1004.0 1003.9 3.6
21/01:00am 13.1 5.2 6.2 63 3.3 WNW 37 54 20 29 1004.1 1004.0 3.6
21/12:30am 13.0 4.9 5.2 59 3.6 WNW 37 61 20 33 1004.6 1004.6 3.6
21/12:00am 13.1 4.7 5.5 60 3.6 WNW 39 57 21 31 1004.8 1004.8 3.6
 
Date/Time
CST
Temp
°C
App
Temp
°C
Dew
Point
°C
Rel
Hum
%
Delta-T
°C
Wind Press
QNH
hPa
Press
MSL
hPa
Rain since
9am
mm
Dir  Spd
km/h
Gust
km/h
Spd
kts
Gust
kts
20/11:30pm 13.4 5.0 5.8 60 3.6 WNW 39 59 21 32 1005.2 1005.2 3.6
20/11:00pm 13.5 6.0 8.1 70 2.7 WNW 37 56 20 30 1005.4 1005.4 3.6
20/10:48pm 13.8 6.0 8.4 70 2.7 WNW 39 59 21 32 1005.0 1005.0 3.6
20/10:30pm 13.7 6.8 9.0 73 2.4 WNW 35 48 19 26 1005.0 1005.0 3.6
20/10:01pm 14.0 7.1 8.8 71 2.6 WNW 35 54 19 29 1005.2 1005.2 3.4
20/10:00pm 14.0 6.7 8.8 71 2.6 WNW 37 54 20 29 1005.3 1005.3 3.4
20/09:37pm 14.2 8.3 9.0 71 2.6 WNW 30 48 16 26 1005.1 1005.1 3.4
20/09:30pm 14.4 8.1 9.0 70 2.8 WNW 32 48 17 26 1005.0 1005.0 3.4
20/09:00pm 14.1 7.2 8.7 70 2.7 WNW 35 54 19 29 1004.6 1004.6 3.4
20/08:38pm 14.2 7.3 8.8 70 2.7 WNW 35 54 19 29 1003.9 1003.8 3.4
20/08:30pm 14.7 7.7 8.6 67 3.1 WNW 35 50 19 27 1003.9 1003.8 3.2
20/08:03pm 15.1 6.9 8.1 63 3.5 WNW 41 61 22 33 1003.3 1003.2 3.2
20/08:00pm 15.0 6.8 8.0 63 3.5 WNW 41 57 22 31 1003.4 1003.3 3.2
20/07:30pm 16.0 9.4 11.4 74 2.5 W 37 56 20 30 1002.7 1002.6 3.2
20/07:01pm 16.9 11.4 12.0 73 2.7 WNW 32 50 17 27 1002.7 1002.6 3.2
20/07:00pm 17.0 11.4 12.1 73 2.7 WNW 33 50 18 27 1002.7 1002.6 3.2
20/06:42pm 17.2 11.8 12.1 72 2.8 WNW 32 50 17 27 1001.6 1001.6 3.2
20/06:30pm 17.3 12.2 12.0 71 2.9 WNW 30 44 16 24 1001.5 1001.5 3.2
20/06:00pm 18.3 13.5 11.8 66 3.6 WNW 28 43 15 23 1000.6 1000.6 3.2
20/05:30pm 18.3 13.0 13.2 72 2.9 NW 33 65 18 35 1000.2 1000.2 3.0
20/05:27pm 20.1 16.4 12.8 63 4.1 NNW 24 54 13 29 1000.1 1000.1 1.4
20/05:00pm 25.4 19.5 7.5 32 9.5 N 28 44 15 24 998.4 998.4 0.0
20/04:30pm 24.9 21.3 8.4 35 8.9 N 17 22 9 12 998.9 998.9 0.0
20/04:00pm 25.7 20.1 7.3 31 9.7 N 26 37 14 20 998.8 998.8 0.0
20/03:36pm 26.4 20.0 8.4 32 9.7 N 32 50 17 27 998.8 998.8 0.0
20/03:30pm 26.4 19.8 8.4 32 9.8 N 33 48 18 26 998.8 998.8 0.0
20/03:00pm 26.1 19.5 8.6 33 9.5 N 33 46 18 25 999.0 999.0 0.0
20/02:30pm 25.6 19.2 8.6 34 9.2 N 32 44 17 24 999.6 999.6 0.0
20/02:00pm 25.2 19.5 8.2 34 9.1 N 28 46 15 25 1000.1 1000.1 0.0
20/01:56pm 25.2 20.0 10.3 39 8.3 N 28 46 15 25 1000.2 1000.2 0.0
20/01:30pm 24.5 19.7 10.4 41 7.9 N 26 39 14 21 1000.7 1000.7 0.0
20/01:00pm 23.8 19.4 10.5 43 7.4 N 24 33 13 18 1001.4 1001.4 0.0
20/12:30pm 23.0 18.6 10.4 45 7.0 N 24 33 13 18 1002.3 1002.2 0.0
20/12:00pm 23.0 20.0 12.0 50 6.3 NNW 19 26 10 14 1003.1 1003.0 0.0
20/11:30am 22.1 19.6 10.9 49 6.2 NNW 15 20 8 11 1003.5 1003.4 0.0
20/11:00am 21.4 18.4 10.6 50 5.9 N 17 26 9 14 1003.6 1003.5 0.0
20/10:30am 20.8 18.5 11.7 56 5.1 N 15 22 8 12 1003.9 1003.8 0.0
20/10:00am 20.2 17.2 11.9 59 4.6 N 19 24 10 13 1004.4 1004.4 0.0
20/09:30am 18.9 16.8 11.2 61 4.2 NNE 13 26 7 14 1004.9 1004.9 0.0
20/09:00am 17.7 16.0 12.4 71 3.0 ENE 13 17 7 9 1005.4 1005.4 0.2
20/08:30am 16.4 14.8 11.6 73 2.6 NE 11 15 6 8 1005.6 1005.6 0.2
20/08:00am 15.8 14.3 11.8 77 2.2 N 11 15 6 8 1005.5 1005.5 0.2
20/07:30am 14.6 12.8 11.0 79 1.9 NNE 11 15 6 8 1005.6 1005.6 0.2
20/07:00am 14.8 13.3 10.6 76 2.2 N 9 13 5 7 1005.3 1005.3 0.2
20/06:30am 13.5 11.4 9.7 78 2.0 NW 11 19 6 10 1005.2 1005.2 0.2
20/06:00am 14.3 11.1 10.1 76 2.2 NW 17 24 9 13 1005.1 1005.1 0.2
20/05:30am 12.5 10.4 9.7 83 1.4 NW 11 20 6 11 1005.1 1005.1 0.2
20/05:00am 12.4 11.0 9.6 83 1.4 N 7 15 4 8 1005.0 1005.0 0.0
20/04:30am 12.7 11.4 10.1 84 1.3 NNW 7 13 4 7 1005.0 1005.0 0.0
20/04:00am 13.1 12.0 10.5 84 1.4 NNW 7 13 4 7 1004.8 1004.8 0.0
20/03:30am 12.5 11.8 9.9 84 1.3 N 4 9 2 5 1004.9 1004.9 0.0
20/03:00am 12.5 11.8 9.9 84 1.3 NW 4 7 2 4 1005.2 1005.2 0.0
20/02:30am 12.7 11.1 10.1 84 1.3 NW 9 13 5 7 1005.3 1005.3 0.0
20/02:00am 12.8 10.8 10.0 83 1.4 NW 11 13 6 7 1005.3 1005.3 0.0
20/01:30am 13.6 11.8 10.8 83 1.5 WNW 11 15 6 8 1005.6 1005.6 0.0
20/01:00am 14.3 12.7 11.5 83 1.5 W 11 17 6 9 1005.7 1005.7 0.0
20/12:30am 13.9 12.6 11.1 83 1.5 WSW 9 20 5 11 1005.6 1005.6 0.0
20/12:00am 14.2 14.2 11.0 81 1.7 W 2 6 1 3 1005.4 1005.4 0.0

Other formats

Comma delimited format used in spreadsheet applications
http://www.bom.gov.au/fwo/IDS60801/IDS60801.94814.axf

JavaScript Object Notation format (JSON) in row-major order
http://www.bom.gov.au/fwo/IDS60801/IDS60801.94814.json

Data quality

Most of these data are generated automatically and are frequently updated. Quality checks on data are not normally performed. It is possible for incorrect values to appear. Refer to information at About Latest Weather Observations and please check the disclaimer before using these data.